Time;durP1;ratioP1;P1;durP2;ratioP2;P2;SDS_P1;SDS_P2;PMS_P1;PMS_P2;Temp;Humidity;BMP_temperature;BMP_pressure;BME280_temperature;BME280_humidity;BME280_pressure;Samples;Min_cycle;Max_cycle;Signal;HPM_P1;HPM_P2
2022/03/04 00:01:34;;;;;;;76.03;25.45;;;;;;;;;;5116331;28;20032;-78
2022/03/04 00:04:00;;;;;;;71.30;24.27;;;;;;;;;;5097752;28;20123;-77
2022/03/04 00:06:25;;;;;;;64.28;21.83;;;;;;;;;;5116095;28;20031;-77
2022/03/04 00:08:51;;;;;;;62.65;22.02;;;;;;;;;;5116131;28;20088;-77
2022/03/04 00:11:17;;;;;;;63.78;21.70;;;;;;;;;;5116123;28;20035;-79
2022/03/04 00:13:43;;;;;;;63.65;21.98;;;;;;;;;;5098840;28;20038;-77
2022/03/04 00:16:08;;;;;;;58.83;21.55;;;;;;;;;;5125805;28;20118;-76
2022/03/04 00:18:33;;;;;;;56.17;20.90;;;;;;;;;;5126219;28;20039;-77
2022/03/04 00:21:00;;;;;;;58.10;20.73;;;;;;;;;;5125150;28;20023;-77
2022/03/04 00:23:26;;;;;;;61.58;20.58;;;;;;;;;;5086356;28;20040;-76
2022/03/04 00:25:51;;;;;;;58.97;20.95;;;;;;;;;;5098961;28;20033;-76
2022/03/04 00:28:17;;;;;;;56.17;20.60;;;;;;;;;;5116251;28;20088;-78
2022/03/04 00:30:42;;;;;;;58.00;20.17;;;;;;;;;;5097570;28;20036;-77
2022/03/04 00:33:07;;;;;;;56.05;18.90;;;;;;;;;;5116016;28;20070;-77
2022/03/04 00:35:33;;;;;;;59.45;19.40;;;;;;;;;;5115367;28;20063;-77
2022/03/04 00:37:58;;;;;;;54.83;20.00;;;;;;;;;;5115346;28;20365;-76
2022/03/04 00:40:24;;;;;;;71.55;21.67;;;;;;;;;;5115539;28;20046;-77
2022/03/04 00:42:50;;;;;;;67.50;21.30;;;;;;;;;;5115619;28;20039;-77
2022/03/04 00:45:15;;;;;;;63.17;21.27;;;;;;;;;;5115370;28;20537;-78
2022/03/04 00:47:41;;;;;;;60.30;21.73;;;;;;;;;;5115565;28;20067;-76
2022/03/04 00:50:07;;;;;;;67.95;21.20;;;;;;;;;;5096570;28;20449;-77
2022/03/04 00:52:32;;;;;;;54.28;20.63;;;;;;;;;;5115073;28;20440;-78
2022/03/04 00:54:57;;;;;;;56.33;20.73;;;;;;;;;;5115321;28;20095;-77
2022/03/04 00:57:23;;;;;;;54.00;20.42;;;;;;;;;;5096807;28;20039;-78
2022/03/04 00:59:48;;;;;;;60.97;21.80;;;;;;;;;;5096728;28;20384;-77
2022/03/04 01:02:15;;;;;;;58.05;20.10;;;;;;;;;;5115175;28;20054;-78
2022/03/04 01:04:40;;;;;;;59.30;20.88;;;;;;;;;;5100468;28;20083;-78
2022/03/04 01:07:06;;;;;;;58.67;19.77;;;;;;;;;;5121059;28;20056;-77
2022/03/04 01:09:31;;;;;;;55.38;20.83;;;;;;;;;;5103337;28;20031;-78
2022/03/04 01:11:57;;;;;;;57.97;20.65;;;;;;;;;;5098547;28;20055;-77
2022/03/04 01:14:22;;;;;;;57.05;20.08;;;;;;;;;;5115757;28;20385;-76
2022/03/04 01:16:48;;;;;;;57.53;19.92;;;;;;;;;;5096927;28;20031;-77
2022/03/04 01:19:13;;;;;;;51.50;19.23;;;;;;;;;;5096337;28;20062;-77
2022/03/04 01:21:39;;;;;;;52.30;19.55;;;;;;;;;;5096989;28;20038;-77
2022/03/04 01:24:06;;;;;;;55.47;19.52;;;;;;;;;;5114933;28;20072;-77
2022/03/04 01:26:31;;;;;;;55.20;19.48;;;;;;;;;;5114865;28;20468;-78
2022/03/04 01:28:57;;;;;;;49.53;18.40;;;;;;;;;;5096704;28;20019;-77
2022/03/04 01:31:22;;;;;;;50.67;18.67;;;;;;;;;;5114719;28;20368;-78
2022/03/04 01:33:47;;;;;;;56.15;19.67;;;;;;;;;;5096624;28;20035;-77
2022/03/04 01:36:13;;;;;;;57.17;18.40;;;;;;;;;;5114616;28;20015;-77
2022/03/04 01:38:39;;;;;;;54.22;19.17;;;;;;;;;;5114625;28;20020;-78
2022/03/04 01:41:04;;;;;;;58.17;22.02;;;;;;;;;;5096765;28;20060;-77
2022/03/04 01:43:30;;;;;;;55.22;20.52;;;;;;;;;;5079664;28;20015;-78
2022/03/04 01:45:55;;;;;;;67.32;21.60;;;;;;;;;;5119062;28;20036;-77
2022/03/04 01:48:21;;;;;;;65.53;21.63;;;;;;;;;;5118597;28;20028;-77
2022/03/04 01:50:50;;;;;;;58.60;20.63;;;;;;;;;;5100601;28;20039;-78
2022/03/04 01:53:16;;;;;;;55.58;18.73;;;;;;;;;;5118870;28;20353;-77
2022/03/04 01:55:42;;;;;;;61.75;22.05;;;;;;;;;;5118523;28;20377;-78
2022/03/04 01:58:07;;;;;;;61.20;20.65;;;;;;;;;;5100267;28;20053;-78
2022/03/04 02:00:33;;;;;;;55.55;19.73;;;;;;;;;;5118691;28;20474;-78
2022/03/04 02:03:00;;;;;;;51.85;19.20;;;;;;;;;;5118409;28;20088;-78
2022/03/04 02:05:26;;;;;;;53.58;19.13;;;;;;;;;;5118655;28;20034;-77
2022/03/04 02:07:51;;;;;;;53.38;19.70;;;;;;;;;;5118534;28;20028;-78
2022/03/04 02:10:17;;;;;;;49.85;18.75;;;;;;;;;;5083387;28;20036;-77
2022/03/04 02:12:42;;;;;;;49.35;19.33;;;;;;;;;;5118507;28;20019;-76
2022/03/04 02:15:08;;;;;;;49.78;17.50;;;;;;;;;;5100222;28;20065;-78
2022/03/04 02:17:34;;;;;;;53.20;17.20;;;;;;;;;;5099728;28;20365;-78
2022/03/04 02:19:59;;;;;;;46.38;16.45;;;;;;;;;;5083290;28;20420;-77
2022/03/04 02:22:25;;;;;;;50.08;17.33;;;;;;;;;;5099522;28;20036;-77
2022/03/04 02:24:50;;;;;;;46.85;18.17;;;;;;;;;;5100353;28;20440;-78
2022/03/04 02:27:16;;;;;;;48.00;17.38;;;;;;;;;;5099619;28;20035;-77
2022/03/04 02:29:41;;;;;;;45.67;18.30;;;;;;;;;;5118041;28;20438;-77
2022/03/04 02:32:07;;;;;;;44.38;15.20;;;;;;;;;;5117773;28;20038;-77
2022/03/04 02:34:32;;;;;;;44.22;16.35;;;;;;;;;;5117926;28;20086;-76
2022/03/04 02:36:58;;;;;;;45.63;17.23;;;;;;;;;;5117741;28;20025;-76
2022/03/04 02:39:23;;;;;;;45.13;17.38;;;;;;;;;;5099859;28;20019;-77
2022/03/04 02:41:49;;;;;;;48.80;15.65;;;;;;;;;;5117885;28;20063;-77
2022/03/04 02:44:14;;;;;;;50.58;17.00;;;;;;;;;;5117897;28;20031;-77
2022/03/04 02:46:40;;;;;;;48.50;16.92;;;;;;;;;;5099155;28;20015;-77
2022/03/04 02:49:06;;;;;;;46.20;16.67;;;;;;;;;;5082375;28;20020;-76
2022/03/04 02:51:31;;;;;;;43.42;16.80;;;;;;;;;;5117614;28;20467;-77
2022/03/04 02:53:57;;;;;;;43.65;15.65;;;;;;;;;;5117706;28;20059;-78
2022/03/04 02:56:23;;;;;;;42.75;17.23;;;;;;;;;;5098090;28;20463;-76
2022/03/04 02:58:49;;;;;;;44.90;16.33;;;;;;;;;;5117579;28;20368;-77
2022/03/04 03:01:14;;;;;;;46.63;16.73;;;;;;;;;;5099128;28;20039;-77
2022/03/04 03:03:40;;;;;;;44.70;15.75;;;;;;;;;;5117457;28;20042;-77
2022/03/04 03:06:05;;;;;;;50.80;18.13;;;;;;;;;;5117197;28;20019;-77
2022/03/04 03:08:31;;;;;;;49.17;17.67;;;;;;;;;;5099304;28;20035;-77
2022/03/04 03:10:56;;;;;;;57.50;18.30;;;;;;;;;;5099296;28;20027;-77
2022/03/04 03:13:22;;;;;;;48.72;17.15;;;;;;;;;;5082045;28;20024;-76
2022/03/04 03:15:48;;;;;;;45.75;18.38;;;;;;;;;;5116824;28;20380;-77
2022/03/04 03:18:14;;;;;;;52.33;18.25;;;;;;;;;;5116912;28;20368;-77
2022/03/04 03:20:39;;;;;;;52.38;17.77;;;;;;;;;;5098875;28;20032;-76
2022/03/04 03:23:05;;;;;;;49.42;19.63;;;;;;;;;;5117072;28;20047;-77
2022/03/04 03:25:30;;;;;;;47.72;18.42;;;;;;;;;;5116999;28;20055;-77
2022/03/04 03:27:56;;;;;;;56.53;18.95;;;;;;;;;;5081625;28;20049;-77
2022/03/04 03:30:21;;;;;;;54.40;18.77;;;;;;;;;;5116751;28;20154;-77
2022/03/04 03:32:46;;;;;;;51.08;18.95;;;;;;;;;;5098781;28;20024;-77
2022/03/04 03:35:12;;;;;;;52.53;19.33;;;;;;;;;;5116558;28;20023;-77
2022/03/04 03:37:38;;;;;;;46.42;17.88;;;;;;;;;;5116808;28;20030;-77
2022/03/04 03:40:05;;;;;;;53.35;18.33;;;;;;;;;;5081433;28;20028;-77
2022/03/04 03:42:30;;;;;;;51.05;18.45;;;;;;;;;;5081734;28;20034;-76
2022/03/04 03:44:56;;;;;;;55.55;19.63;;;;;;;;;;5116434;28;20384;-77
2022/03/04 03:47:21;;;;;;;58.42;19.83;;;;;;;;;;5098192;28;20037;-77
2022/03/04 03:49:46;;;;;;;53.17;19.38;;;;;;;;;;5116743;28;20042;-77
2022/03/04 03:52:12;;;;;;;50.17;18.30;;;;;;;;;;5098350;28;20031;-78
2022/03/04 03:54:37;;;;;;;53.05;18.70;;;;;;;;;;5116547;28;20111;-76
2022/03/04 03:57:03;;;;;;;61.88;20.52;;;;;;;;;;5116170;28;20020;-77
2022/03/04 03:59:29;;;;;;;63.35;21.83;;;;;;;;;;5097740;28;20474;-76
2022/03/04 04:01:54;;;;;;;58.38;19.75;;;;;;;;;;5116383;28;20035;-75
2022/03/04 04:04:20;;;;;;;54.55;17.98;;;;;;;;;;5098140;28;20772;-75
2022/03/04 04:06:45;;;;;;;58.80;18.83;;;;;;;;;;5115964;28;20051;-76
2022/03/04 04:09:11;;;;;;;52.17;18.70;;;;;;;;;;5116120;28;20415;-77
2022/03/04 04:11:37;;;;;;;57.55;19.23;;;;;;;;;;5116147;28;20042;-76
2022/03/04 04:14:07;;;;;;;50.65;19.75;;;;;;;;;;5097730;28;20027;-76
2022/03/04 04:16:32;;;;;;;56.63;20.38;;;;;;;;;;5097626;28;20024;-76
2022/03/04 04:18:58;;;;;;;58.28;19.60;;;;;;;;;;5097867;28;20107;-76
2022/03/04 04:21:24;;;;;;;61.88;21.75;;;;;;;;;;5115747;28;20039;-76
2022/03/04 04:23:50;;;;;;;59.65;20.70;;;;;;;;;;5115852;28;20381;-76
2022/03/04 04:26:16;;;;;;;66.10;22.02;;;;;;;;;;5115600;28;20133;-76
2022/03/04 04:28:41;;;;;;;60.30;21.92;;;;;;;;;;5115894;28;20119;-76
2022/03/04 04:31:06;;;;;;;54.92;20.05;;;;;;;;;;5115461;28;20490;-77
2022/03/04 04:33:32;;;;;;;55.67;20.35;;;;;;;;;;5115413;28;20038;-76
2022/03/04 04:35:58;;;;;;;59.00;21.17;;;;;;;;;;5097507;28;20042;-77
2022/03/04 04:38:23;;;;;;;59.65;21.88;;;;;;;;;;5115690;28;20028;-76
2022/03/04 04:40:49;;;;;;;65.25;22.05;;;;;;;;;;5097345;28;20032;-76
2022/03/04 04:43:14;;;;;;;71.50;23.20;;;;;;;;;;5097109;28;20035;-75
2022/03/04 04:45:40;;;;;;;65.05;23.52;;;;;;;;;;5097435;28;20031;-75
2022/03/04 04:48:06;;;;;;;64.78;22.83;;;;;;;;;;5097341;28;20024;-78
2022/03/04 04:50:31;;;;;;;64.10;24.25;;;;;;;;;;5115198;28;20518;-76
2022/03/04 04:52:56;;;;;;;64.65;24.48;;;;;;;;;;5097267;28;20027;-78
2022/03/04 04:55:22;;;;;;;67.47;24.15;;;;;;;;;;5096965;28;20112;-77
2022/03/04 04:57:47;;;;;;;62.25;21.83;;;;;;;;;;5114765;28;20028;-76
2022/03/04 05:00:13;;;;;;;62.58;23.20;;;;;;;;;;5115125;28;20036;-76
2022/03/04 05:02:39;;;;;;;58.40;22.45;;;;;;;;;;5097064;28;20035;-77
2022/03/04 05:05:05;;;;;;;57.03;21.70;;;;;;;;;;5114901;28;20027;-77
2022/03/04 05:07:31;;;;;;;56.60;21.90;;;;;;;;;;5096794;28;20031;-77
2022/03/04 05:09:56;;;;;;;56.60;21.63;;;;;;;;;;5114868;28;20115;-77
2022/03/04 05:12:21;;;;;;;74.22;24.80;;;;;;;;;;5114803;28;20032;-76
2022/03/04 05:15:06;;;;;;;60.60;24.10;;;;;;;;;;5115006;28;20040;-77
2022/03/04 05:17:31;;;;;;;68.90;22.92;;;;;;;;;;5114725;28;20437;-76
2022/03/04 05:19:57;;;;;;;63.95;23.80;;;;;;;;;;5113837;28;20028;-76
2022/03/04 05:22:22;;;;;;;60.15;21.95;;;;;;;;;;5079661;28;20059;-75
2022/03/04 05:24:47;;;;;;;60.85;22.30;;;;;;;;;;5114709;28;20051;-76
2022/03/04 05:27:13;;;;;;;52.47;20.95;;;;;;;;;;5114560;28;20527;-76
2022/03/04 05:29:38;;;;;;;54.28;20.42;;;;;;;;;;5114836;28;20035;-75
2022/03/04 05:32:04;;;;;;;57.85;19.95;;;;;;;;;;5114863;28;20449;-74
2022/03/04 05:34:30;;;;;;;65.80;21.23;;;;;;;;;;5114687;28;20403;-74
2022/03/04 05:36:55;;;;;;;61.63;21.25;;;;;;;;;;5106251;28;20171;-74
2022/03/04 05:39:20;;;;;;;74.22;24.52;;;;;;;;;;5093095;28;20070;-74
2022/03/04 05:41:46;;;;;;;71.90;24.45;;;;;;;;;;5092430;28;20032;-74
2022/03/04 05:44:12;;;;;;;66.82;24.27;;;;;;;;;;5094155;28;20032;-74
2022/03/04 05:46:38;;;;;;;68.65;24.15;;;;;;;;;;5110741;28;20079;-74
2022/03/04 05:49:04;;;;;;;64.07;23.25;;;;;;;;;;5114057;28;20118;-74
2022/03/04 05:52:01;;;;;;;;;;;;;;;;;;;;;
2022/03/04 05:54:27;;;;;;;73.00;24.65;;;;;;;;;;5077399;28;20039;-77
2022/03/04 05:56:53;;;;;;;90.15;29.38;;;;;;;;;;5095717;28;20115;-75
2022/03/04 05:59:20;;;;;;;81.18;28.40;;;;;;;;;;5097826;28;20553;-74
2022/03/04 06:07:36;;;;;;;;;;;;;;;;;;;;;
2022/03/04 06:11:09;;;;;;;70.88;25.13;;;;;;;;;;5092218;28;20123;-77
2022/03/04 06:46:11;;;;;;;78.07;24.70;;;;;;;;;;3319926;22;20056;-76
2022/03/04 06:48:58;;;;;;;72.63;25.23;;;;;;;;;;5094379;28;20053;-74
2022/03/04 06:51:24;;;;;;;75.05;25.27;;;;;;;;;;5088503;28;20063;-75
2022/03/04 06:53:56;;;;;;;80.40;26.33;;;;;;;;;;5091701;28;20055;-75
2022/03/04 06:56:27;;;;;;;77.07;26.35;;;;;;;;;;5072802;28;20029;-75
2022/03/04 06:58:54;;;;;;;79.50;27.20;;;;;;;;;;5090302;28;20031;-75
2022/03/04 07:01:44;;;;;;;85.65;27.95;;;;;;;;;;5104410;28;20036;-77
2022/03/04 07:04:16;;;;;;;153.77;58.72;;;;;;;;;;5089516;28;20142;-76
2022/03/04 07:06:53;;;;;;;100.10;34.45;;;;;;;;;;5085226;28;20024;-75
2022/03/04 07:09:20;;;;;;;84.93;29.95;;;;;;;;;;5087810;28;20036;-75
2022/03/04 07:11:57;;;;;;;78.15;30.77;;;;;;;;;;5127459;28;20040;-76
2022/03/04 07:17:04;;;;;;;92.18;34.45;;;;;;;;;;3404531;26;20083;-81
2022/03/04 07:19:31;;;;;;;90.90;36.00;;;;;;;;;;5095391;28;20061;-80
2022/03/04 07:21:56;;;;;;;106.30;39.38;;;;;;;;;;5090849;28;20354;-82
2022/03/04 07:24:22;;;;;;;108.88;41.17;;;;;;;;;;5095923;28;20024;-83
2022/03/04 07:26:47;;;;;;;96.25;37.15;;;;;;;;;;5095390;28;20504;-80
2022/03/04 07:29:13;;;;;;;106.68;36.25;;;;;;;;;;5095354;28;20035;-81
2022/03/04 07:31:38;;;;;;;109.18;45.08;;;;;;;;;;5061021;28;20475;-79
2022/03/04 07:34:04;;;;;;;108.05;41.78;;;;;;;;;;5094286;28;20437;-80
2022/03/04 07:36:29;;;;;;;98.55;41.03;;;;;;;;;;5093964;28;20047;-81
2022/03/04 07:38:57;;;;;;;98.72;38.72;;;;;;;;;;5094676;28;20410;-81
2022/03/04 07:41:22;;;;;;;94.70;40.92;;;;;;;;;;5097492;28;20111;-84
2022/03/04 07:44:10;;;;;;;120.80;54.75;;;;;;;;;;5108487;28;20059;-82
2022/03/04 07:46:36;;;;;;;104.53;47.97;;;;;;;;;;5109468;28;20036;-80
2022/03/04 07:49:03;;;;;;;102.97;41.10;;;;;;;;;;5114265;28;20023;-82
2022/03/04 07:51:28;;;;;;;100.90;45.22;;;;;;;;;;5114078;28;20054;-82
2022/03/04 07:54:19;;;;;;;96.80;42.60;;;;;;;;;;5083215;28;20035;-83
2022/03/04 07:56:44;;;;;;;97.57;41.25;;;;;;;;;;5098505;27;20035;-80
2022/03/04 07:59:10;;;;;;;89.03;39.50;;;;;;;;;;5114230;28;20057;-81
2022/03/04 08:01:36;;;;;;;88.25;40.17;;;;;;;;;;5121600;28;20480;-80
2022/03/04 08:04:02;;;;;;;85.85;38.22;;;;;;;;;;5113450;28;20043;-82
2022/03/04 08:06:27;;;;;;;102.28;39.53;;;;;;;;;;5095143;28;20027;-81
2022/03/04 08:08:53;;;;;;;99.32;44.85;;;;;;;;;;5081177;28;20405;-82
2022/03/04 08:11:18;;;;;;;94.68;40.53;;;;;;;;;;5105816;28;20120;-83
2022/03/04 08:13:44;;;;;;;96.40;38.67;;;;;;;;;;5072595;28;20052;-81
2022/03/04 08:16:09;;;;;;;93.57;41.60;;;;;;;;;;5074050;28;20055;-83
2022/03/04 08:18:35;;;;;;;107.97;42.45;;;;;;;;;;5096722;28;20031;-82
2022/03/04 08:21:00;;;;;;;87.55;37.40;;;;;;;;;;5074922;28;20131;-79
2022/03/04 08:23:29;;;;;;;89.35;36.60;;;;;;;;;;5076179;28;20031;-79
2022/03/04 08:25:57;;;;;;;159.80;70.97;;;;;;;;;;5089565;28;20085;-80
2022/03/04 08:28:23;;;;;;;260.50;93.65;;;;;;;;;;5084375;28;20051;-79
2022/03/04 08:30:51;;;;;;;161.50;65.88;;;;;;;;;;5099150;28;20048;-84
2022/03/04 08:33:35;;;;;;;90.57;39.33;;;;;;;;;;5100902;28;20042;-80
2022/03/04 08:36:03;;;;;;;94.97;37.72;;;;;;;;;;5093509;28;20043;-82
2022/03/04 08:38:29;;;;;;;97.95;35.97;;;;;;;;;;5072661;28;20032;-83
2022/03/04 08:40:54;;;;;;;104.47;36.53;;;;;;;;;;5092002;28;20441;-82
2022/03/04 08:43:20;;;;;;;86.93;39.10;;;;;;;;;;5089628;28;20039;-79
2022/03/04 08:45:46;;;;;;;89.53;40.00;;;;;;;;;;5090578;28;20047;-77
2022/03/04 08:48:12;;;;;;;99.00;39.72;;;;;;;;;;5088865;28;20024;-79
2022/03/04 08:50:37;;;;;;;90.28;39.17;;;;;;;;;;5089609;28;20024;-80
2022/03/04 08:53:03;;;;;;;113.47;50.40;;;;;;;;;;5078461;28;20024;-77
2022/03/04 08:55:30;;;;;;;106.80;45.05;;;;;;;;;;5089376;28;20047;-77
2022/03/04 08:57:56;;;;;;;96.38;42.20;;;;;;;;;;5089910;28;20024;-78
2022/03/04 09:00:21;;;;;;;137.65;59.05;;;;;;;;;;5094167;28;20368;-77
2022/03/04 09:02:47;;;;;;;109.97;44.92;;;;;;;;;;5092739;28;20028;-77
2022/03/04 09:05:12;;;;;;;91.57;38.33;;;;;;;;;;5094618;28;20024;-77
2022/03/04 09:07:37;;;;;;;92.70;37.53;;;;;;;;;;5093113;28;20065;-77
2022/03/04 09:10:04;;;;;;;104.00;42.05;;;;;;;;;;5093666;28;20122;-75
2022/03/04 09:12:30;;;;;;;117.38;46.50;;;;;;;;;;5091389;28;20054;-78
2022/03/04 09:14:56;;;;;;;122.70;51.45;;;;;;;;;;5093757;28;20020;-77
2022/03/04 09:17:24;;;;;;;115.38;45.58;;;;;;;;;;5093625;28;20089;-78
2022/03/04 09:19:50;;;;;;;119.60;56.22;;;;;;;;;;5096769;28;20036;-77
2022/03/04 09:22:16;;;;;;;106.35;45.80;;;;;;;;;;5093464;28;20028;-76
2022/03/04 09:24:41;;;;;;;103.40;43.13;;;;;;;;;;5092397;28;20024;-76
2022/03/04 09:27:07;;;;;;;115.90;48.53;;;;;;;;;;5089850;28;20039;-76
2022/03/04 09:29:33;;;;;;;112.95;46.28;;;;;;;;;;5092786;28;20024;-76
2022/03/04 09:31:59;;;;;;;123.78;46.78;;;;;;;;;;5093184;28;20036;-75
2022/03/04 09:34:24;;;;;;;92.88;37.75;;;;;;;;;;5093773;28;20358;-76
2022/03/04 09:36:50;;;;;;;106.53;39.45;;;;;;;;;;5093831;28;20345;-76
2022/03/04 09:39:15;;;;;;;104.78;41.50;;;;;;;;;;5095300;28;20310;-76
2022/03/04 09:41:43;;;;;;;105.78;39.55;;;;;;;;;;5093189;28;20032;-76
2022/03/04 09:44:09;;;;;;;94.70;37.30;;;;;;;;;;5092220;28;20393;-77
2022/03/04 09:46:35;;;;;;;99.07;38.90;;;;;;;;;;5092122;28;20024;-77
2022/03/04 09:49:00;;;;;;;108.05;40.85;;;;;;;;;;5094067;28;20373;-82
2022/03/04 09:51:26;;;;;;;104.25;38.05;;;;;;;;;;5075958;28;20032;-80
2022/03/04 09:53:52;;;;;;;100.32;40.53;;;;;;;;;;5094155;28;20036;-81
2022/03/04 09:56:19;;;;;;;121.32;47.22;;;;;;;;;;5059480;28;20130;-80
2022/03/04 09:58:45;;;;;;;97.47;35.67;;;;;;;;;;5100785;28;20024;-78
2022/03/04 10:01:12;;;;;;;97.95;34.45;;;;;;;;;;5104180;28;20035;-80
2022/03/04 10:03:48;;;;;;;120.97;47.85;;;;;;;;;;5101172;28;20114;-76
2022/03/04 10:06:13;;;;;;;107.00;40.58;;;;;;;;;;5095695;28;20056;-76
2022/03/04 10:08:41;;;;;;;84.43;33.63;;;;;;;;;;5079955;28;20063;-76
2022/03/04 10:11:06;;;;;;;142.23;57.50;;;;;;;;;;5097720;28;20032;-76
2022/03/04 10:13:42;;;;;;;103.03;41.17;;;;;;;;;;5096352;28;20476;-75
2022/03/04 10:16:07;;;;;;;86.05;33.78;;;;;;;;;;5097256;28;20451;-77
2022/03/04 10:18:34;;;;;;;113.97;47.22;;;;;;;;;;5085058;28;20028;-76
2022/03/04 10:21:00;;;;;;;103.85;41.05;;;;;;;;;;5097579;28;20036;-79
2022/03/04 10:23:26;;;;;;;116.57;44.78;;;;;;;;;;5096416;28;20473;-78
2022/03/04 10:25:56;;;;;;;112.97;42.67;;;;;;;;;;5079964;28;20032;-79
2022/03/04 10:28:24;;;;;;;89.22;33.20;;;;;;;;;;5080247;28;20024;-80
2022/03/04 10:30:50;;;;;;;79.95;31.25;;;;;;;;;;5095803;28;20438;-80
2022/03/04 10:33:17;;;;;;;73.40;28.02;;;;;;;;;;5095236;28;20047;-79
2022/03/04 10:35:44;;;;;;;74.45;28.98;;;;;;;;;;5096294;28;20042;-80
2022/03/04 10:38:23;;;;;;;81.20;29.67;;;;;;;;;;5086760;28;20437;-79
2022/03/04 10:40:49;;;;;;;78.70;29.17;;;;;;;;;;5062561;28;20028;-79
2022/03/04 10:43:22;;;;;;;79.63;31.52;;;;;;;;;;5097050;28;20039;-81
2022/03/04 10:45:48;;;;;;;80.20;30.77;;;;;;;;;;5080081;28;20338;-82
2022/03/04 10:48:20;;;;;;;76.00;27.95;;;;;;;;;;5079132;28;20035;-81
2022/03/04 10:50:49;;;;;;;76.47;28.08;;;;;;;;;;5079559;28;20036;-80
2022/03/04 10:53:17;;;;;;;71.10;26.65;;;;;;;;;;5096237;28;20020;-80
2022/03/04 10:55:55;;;;;;;64.50;26.27;;;;;;;;;;5097511;28;20024;-80
2022/03/04 10:58:30;;;;;;;60.85;25.27;;;;;;;;;;5100608;28;20369;-82
2022/03/04 11:00:58;;;;;;;59.17;24.73;;;;;;;;;;5063808;28;20077;-81
2022/03/04 11:03:26;;;;;;;73.20;27.00;;;;;;;;;;5095734;28;20024;-81
2022/03/04 11:06:01;;;;;;;70.65;27.40;;;;;;;;;;5095715;28;20035;-80
2022/03/04 11:08:26;;;;;;;120.72;47.50;;;;;;;;;;5095608;28;20039;-80
2022/03/04 11:10:52;;;;;;;82.07;32.28;;;;;;;;;;5096573;28;20036;-80
2022/03/04 11:13:18;;;;;;;85.95;33.47;;;;;;;;;;5096754;28;20024;-78
2022/03/04 11:15:47;;;;;;;77.43;29.52;;;;;;;;;;5095874;28;20355;-79
2022/03/04 11:18:16;;;;;;;79.60;28.85;;;;;;;;;;5102666;28;20172;-78
2022/03/04 11:20:43;;;;;;;72.32;29.95;;;;;;;;;;5096716;28;20032;-78
2022/03/04 11:23:11;;;;;;;72.93;30.77;;;;;;;;;;5095273;28;20434;-79
2022/03/04 11:25:40;;;;;;;70.05;29.23;;;;;;;;;;5078203;28;20059;-78
2022/03/04 11:28:17;;;;;;;74.45;30.42;;;;;;;;;;5095209;28;20024;-79
2022/03/04 11:30:51;;;;;;;74.28;29.98;;;;;;;;;;5096199;28;20032;-79
2022/03/04 11:33:21;;;;;;;76.97;30.20;;;;;;;;;;5095182;28;20036;-80
2022/03/04 11:35:56;;;;;;;87.75;34.30;;;;;;;;;;5079388;28;20028;-79
2022/03/04 11:39:00;;;;;;;73.80;29.38;;;;;;;;;;5105140;28;20456;-80
2022/03/04 11:41:26;;;;;;;77.95;30.15;;;;;;;;;;5095782;28;20036;-81
2022/03/04 11:43:55;;;;;;;73.97;29.27;;;;;;;;;;5096038;28;20036;-80
2022/03/04 11:46:22;;;;;;;81.03;31.30;;;;;;;;;;5094980;28;20028;-79
2022/03/04 11:48:48;;;;;;;75.40;28.77;;;;;;;;;;5094861;28;20024;-80
2022/03/04 11:51:17;;;;;;;67.35;27.30;;;;;;;;;;5077804;28;20350;-80
2022/03/04 11:53:43;;;;;;;66.85;26.73;;;;;;;;;;5096070;28;20103;-80
2022/03/04 11:56:11;;;;;;;82.43;31.65;;;;;;;;;;5089204;28;20063;-80
2022/03/04 11:58:54;;;;;;;97.63;36.88;;;;;;;;;;5097641;28;20038;-80
2022/03/04 12:01:27;;;;;;;77.07;31.98;;;;;;;;;;5095857;28;20051;-81
2022/03/04 12:04:22;;;;;;;82.38;31.48;;;;;;;;;;5061378;28;20028;-78
2022/03/04 12:07:09;;;;;;;69.43;28.42;;;;;;;;;;5077400;28;20027;-77
2022/03/04 12:09:35;;;;;;;67.20;27.75;;;;;;;;;;5093960;28;20036;-77
2022/03/04 12:12:24;;;;;;;73.25;28.95;;;;;;;;;;5094200;28;20032;-77
2022/03/04 12:15:18;;;;;;;62.88;26.52;;;;;;;;;;5096400;28;20035;-81
2022/03/04 12:17:53;;;;;;;61.28;26.77;;;;;;;;;;5103535;28;20036;-81
2022/03/04 12:20:37;;;;;;;73.45;30.35;;;;;;;;;;5095485;28;20343;-82
2022/03/04 12:23:10;;;;;;;62.17;26.48;;;;;;;;;;5095520;28;20027;-82
2022/03/04 12:25:58;;;;;;;92.07;38.88;;;;;;;;;;5078216;28;20028;-81
2022/03/04 12:28:24;;;;;;;78.95;33.88;;;;;;;;;;5099933;28;20446;-79
2022/03/04 12:31:01;;;;;;;68.70;29.40;;;;;;;;;;5104726;28;20027;-81
2022/03/04 12:33:33;;;;;;;73.85;29.52;;;;;;;;;;5111506;28;20028;-82
2022/03/04 12:36:00;;;;;;;81.97;31.95;;;;;;;;;;5104821;28;20070;-82
2022/03/04 12:38:29;;;;;;;73.13;27.50;;;;;;;;;;5070385;28;20024;-82
2022/03/04 12:40:59;;;;;;;62.63;28.17;;;;;;;;;;5096597;28;20027;-81
2022/03/04 12:43:25;;;;;;;68.68;30.25;;;;;;;;;;5094465;28;20270;-81
2022/03/04 12:45:51;;;;;;;63.25;25.80;;;;;;;;;;5060705;28;20039;-81
2022/03/04 12:48:18;;;;;;;59.20;25.35;;;;;;;;;;5093901;28;20732;-81
2022/03/04 12:50:43;;;;;;;67.20;25.80;;;;;;;;;;5076859;28;20122;-81
2022/03/04 12:53:19;;;;;;;61.15;25.17;;;;;;;;;;5077125;28;20139;-78
2022/03/04 12:55:58;;;;;;;56.30;25.83;;;;;;;;;;5076950;28;20118;-81
2022/03/04 12:58:50;;;;;;;61.53;27.10;;;;;;;;;;5099092;28;20042;-79
2022/03/04 13:01:17;;;;;;;67.75;26.63;;;;;;;;;;5097613;28;20058;-83
2022/03/04 13:03:47;;;;;;;62.50;25.42;;;;;;;;;;5093347;28;20118;-77
2022/03/04 13:06:12;;;;;;;72.03;29.40;;;;;;;;;;5093633;28;20178;-77
2022/03/04 13:08:49;;;;;;;95.25;37.63;;;;;;;;;;5091107;28;20016;-81
2022/03/04 13:11:18;;;;;;;55.72;24.33;;;;;;;;;;5078144;28;20032;-78
2022/03/04 13:13:54;;;;;;;68.25;26.63;;;;;;;;;;5094642;28;20365;-78
2022/03/04 13:16:30;;;;;;;62.85;24.48;;;;;;;;;;5093390;28;20521;-80
2022/03/04 13:18:57;;;;;;;65.47;25.42;;;;;;;;;;5098263;28;20024;-83
2022/03/04 13:21:36;;;;;;;56.65;23.60;;;;;;;;;;5081525;28;20028;-81
2022/03/04 13:24:26;;;;;;;58.00;23.08;;;;;;;;;;5075518;28;20465;-83
2022/03/04 13:26:59;;;;;;;66.93;24.73;;;;;;;;;;5086072;28;20036;-80
2022/03/04 13:29:35;;;;;;;73.72;29.17;;;;;;;;;;5094519;28;20499;-80
2022/03/04 13:32:06;;;;;;;63.70;26.40;;;;;;;;;;5059701;28;20028;-81
2022/03/04 13:34:31;;;;;;;64.72;26.65;;;;;;;;;;5092511;28;20128;-80
2022/03/04 13:37:00;;;;;;;60.22;24.75;;;;;;;;;;5093025;28;20110;-81
2022/03/04 13:39:32;;;;;;;63.65;25.92;;;;;;;;;;5079045;28;20558;-80
2022/03/04 13:42:10;;;;;;;60.90;25.95;;;;;;;;;;5106075;28;20446;-81
2022/03/04 13:44:50;;;;;;;68.13;26.70;;;;;;;;;;5098632;28;20039;-80
2022/03/04 13:47:33;;;;;;;71.50;28.20;;;;;;;;;;5064061;28;20038;-81
2022/03/04 13:49:59;;;;;;;61.97;25.75;;;;;;;;;;5098074;28;20028;-81
2022/03/04 13:52:25;;;;;;;67.95;28.63;;;;;;;;;;5099091;28;20430;-81
2022/03/04 13:55:00;;;;;;;68.35;27.88;;;;;;;;;;5081025;28;20349;-80
2022/03/04 13:57:37;;;;;;;64.38;27.45;;;;;;;;;;5098205;28;20085;-80
2022/03/04 14:00:16;;;;;;;61.33;26.08;;;;;;;;;;5086075;28;20028;-82
2022/03/04 14:02:49;;;;;;;69.00;29.20;;;;;;;;;;5104484;28;20036;-80
2022/03/04 14:05:32;;;;;;;61.88;25.40;;;;;;;;;;5064316;28;20044;-80
2022/03/04 14:08:04;;;;;;;133.75;56.13;;;;;;;;;;5079842;28;20429;-81
2022/03/04 14:10:30;;;;;;;69.88;29.58;;;;;;;;;;5097922;28;20130;-82
2022/03/04 14:12:56;;;;;;;66.50;28.52;;;;;;;;;;5063419;28;20392;-79
2022/03/04 14:15:21;;;;;;;68.68;32.42;;;;;;;;;;5080048;28;20111;-80
2022/03/04 14:17:50;;;;;;;111.25;51.75;;;;;;;;;;5097982;28;20113;-83
2022/03/04 14:20:15;;;;;;;60.38;25.77;;;;;;;;;;5082791;28;20056;-82
2022/03/04 14:22:41;;;;;;;76.82;31.95;;;;;;;;;;5086901;28;20028;-82
2022/03/04 14:25:08;;;;;;;83.03;39.65;;;;;;;;;;5079070;28;20390;-81
2022/03/04 14:27:33;;;;;;;74.32;32.75;;;;;;;;;;5096178;28;20028;-81
2022/03/04 14:29:59;;;;;;;70.00;28.05;;;;;;;;;;5095999;28;20028;-82
2022/03/04 14:32:24;;;;;;;57.45;25.88;;;;;;;;;;5096260;28;20113;-82
2022/03/04 14:34:55;;;;;;;72.40;27.08;;;;;;;;;;5078819;28;20055;-81
2022/03/04 14:37:21;;;;;;;96.13;31.65;;;;;;;;;;5095918;28;20430;-81
2022/03/04 14:39:46;;;;;;;60.67;25.67;;;;;;;;;;5096092;28;20127;-81
2022/03/04 14:42:12;;;;;;;61.10;26.25;;;;;;;;;;5090605;28;20023;-83
2022/03/04 14:44:37;;;;;;;64.80;26.05;;;;;;;;;;5098452;28;20058;-81
2022/03/04 14:47:03;;;;;;;80.20;34.20;;;;;;;;;;5096878;28;20166;-80
2022/03/04 14:49:29;;;;;;;72.18;29.58;;;;;;;;;;5078651;28;20024;-81
2022/03/04 14:51:54;;;;;;;71.90;27.25;;;;;;;;;;5078721;28;20488;-81
2022/03/04 14:54:20;;;;;;;74.15;28.23;;;;;;;;;;5062111;28;20032;-81
2022/03/04 14:56:45;;;;;;;66.88;27.10;;;;;;;;;;5095688;28;20054;-80
2022/03/04 14:59:11;;;;;;;78.72;29.25;;;;;;;;;;5062199;28;20055;-80
2022/03/04 15:01:37;;;;;;;76.55;30.20;;;;;;;;;;5082971;28;20022;-82
2022/03/04 15:04:02;;;;;;;68.68;27.52;;;;;;;;;;5090717;28;20019;-82